createdAt,value
2023-01-17T00:02:09.779Z,3.20
2023-01-17T00:04:55.035Z,3.20
2023-01-17T00:07:42.155Z,3.20
2023-01-17T00:10:21.640Z,3.20
2023-01-17T00:12:59.476Z,3.30
2023-01-17T00:15:27.863Z,3.30
2023-01-17T00:17:57.113Z,3.30
2023-01-17T00:20:48.667Z,3.30
2023-01-17T00:23:40.073Z,3.30
2023-01-17T00:26:19.717Z,3.30
2023-01-17T00:28:46.975Z,3.20
2023-01-17T00:31:20.523Z,3.30
2023-01-17T00:33:47.233Z,3.20
2023-01-17T00:36:14.149Z,3.20
2023-01-17T00:38:41.072Z,3.10
2023-01-17T00:41:13.285Z,3.10
2023-01-17T00:43:59.002Z,3.00
2023-01-17T00:46:46.766Z,2.80
2023-01-17T00:49:32.152Z,2.70
2023-01-17T00:52:17.564Z,2.60
2023-01-17T00:55:02.659Z,2.50
2023-01-17T00:57:48.360Z,2.40
2023-01-17T01:00:34.480Z,2.30
2023-01-17T01:03:19.875Z,2.20
2023-01-17T01:06:05.467Z,2.10
2023-01-17T01:08:50.827Z,2.10
2023-01-17T01:11:38.748Z,2.10
2023-01-17T01:14:26.712Z,2.10
2023-01-17T01:17:12.156Z,2.00
2023-01-17T01:19:57.565Z,2.00
2023-01-17T01:22:46.437Z,2.00
2023-01-17T01:25:31.962Z,1.90
2023-01-17T01:28:32.448Z,1.90
2023-01-17T01:31:22.189Z,1.80
2023-01-17T01:33:52.810Z,1.80
2023-01-17T01:36:20.210Z,1.80
2023-01-17T01:38:46.997Z,1.80
2023-01-17T01:41:13.694Z,1.80
2023-01-17T01:43:51.883Z,1.80
2023-01-17T01:46:26.859Z,1.80
2023-01-17T01:48:58.788Z,1.90
2023-01-17T01:51:39.387Z,1.90
2023-01-17T01:54:16.560Z,2.00
2023-01-17T01:56:45.349Z,2.10
2023-01-17T01:59:15.715Z,2.20
2023-01-17T02:01:42.482Z,2.30
2023-01-17T02:04:10.109Z,2.40
2023-01-17T02:06:41.714Z,2.40
2023-01-17T02:09:11.556Z,2.50
2023-01-17T02:11:39.923Z,2.50
2023-01-17T02:14:07.007Z,2.50
2023-01-17T02:17:08.990Z,2.50
2023-01-17T02:19:56.581Z,2.50
2023-01-17T02:22:49.419Z,2.50
2023-01-17T02:25:34.577Z,2.50
2023-01-17T02:28:36.899Z,2.50
2023-01-17T02:31:27.524Z,2.50
2023-01-17T02:34:10.287Z,2.50
2023-01-17T02:36:43.379Z,2.50
2023-01-17T02:39:20.705Z,2.40
2023-01-17T02:41:52.414Z,2.30
2023-01-17T02:44:21.136Z,2.20
2023-01-17T02:46:50.519Z,2.00
2023-01-17T02:49:19.710Z,1.90
2023-01-17T02:52:13.448Z,1.80
2023-01-17T02:54:42.836Z,1.80
2023-01-17T02:57:12.514Z,1.70
2023-01-17T03:00:11.077Z,1.70
2023-01-17T03:02:57.435Z,1.60
2023-01-17T03:05:34.010Z,1.40
2023-01-17T03:08:02.656Z,1.30
2023-01-17T03:10:34.918Z,1.20
2023-01-17T03:13:03.235Z,1.00
2023-01-17T03:15:29.962Z,0.90
2023-01-17T03:18:08.703Z,0.70
2023-01-17T03:20:35.379Z,0.50
2023-01-17T03:23:02.160Z,0.50
2023-01-17T03:25:28.857Z,0.50
2023-01-17T03:27:55.667Z,0.50
2023-01-17T03:30:23.126Z,0.40
2023-01-17T03:32:50.046Z,0.50
2023-01-17T03:35:16.811Z,0.40
2023-01-17T03:37:45.529Z,0.30
2023-01-17T03:40:12.571Z,0.30
2023-01-17T03:42:39.778Z,0.20
2023-01-17T03:45:06.792Z,0.20
2023-01-17T03:47:36.007Z,0.10
2023-01-17T03:50:03.477Z,0.10
2023-01-17T03:52:33.298Z,0.00
2023-01-17T03:55:00.041Z,-0.10
2023-01-17T03:57:26.749Z,-0.10
2023-01-17T03:59:53.425Z,-0.20
2023-01-17T04:02:20.367Z,-0.30
2023-01-17T04:04:50.403Z,-0.40
2023-01-17T04:07:23.224Z,-0.50
2023-01-17T04:09:49.914Z,-0.60
2023-01-17T04:12:16.662Z,-0.70
2023-01-17T04:14:43.340Z,-0.70
2023-01-17T04:17:13.867Z,-0.80
2023-01-17T04:19:41.263Z,-1.00
2023-01-17T04:22:08.571Z,-1.20
2023-01-17T04:24:35.434Z,-1.20
2023-01-17T04:27:03.604Z,-1.20
2023-01-17T04:29:30.423Z,-1.20
2023-01-17T04:31:57.184Z,-1.10
2023-01-17T04:34:24.100Z,-0.90
2023-01-17T04:36:50.757Z,-0.60
2023-01-17T04:39:17.492Z,-0.40
2023-01-17T04:41:47.201Z,-0.20
2023-01-17T04:44:13.894Z,0.00
2023-01-17T04:46:40.619Z,0.10
2023-01-17T04:49:07.392Z,0.20
2023-01-17T04:51:34.298Z,0.30
2023-01-17T04:54:04.091Z,0.40
2023-01-17T04:56:33.831Z,0.50
2023-01-17T04:59:00.512Z,0.50
2023-01-17T05:01:27.449Z,0.60
2023-01-17T05:03:58.264Z,0.70
2023-01-17T05:06:25.032Z,0.70
2023-01-17T05:08:51.723Z,0.80
2023-01-17T05:11:18.692Z,0.70
2023-01-17T05:13:47.993Z,0.70
2023-01-17T05:16:17.240Z,0.80
2023-01-17T05:18:43.950Z,0.70
2023-01-17T05:21:10.641Z,0.70
2023-01-17T05:23:37.997Z,0.70
2023-01-17T05:26:04.707Z,0.70
2023-01-17T05:28:33.469Z,0.70
2023-01-17T05:31:00.323Z,0.80
2023-01-17T05:33:30.125Z,0.80
2023-01-17T05:35:57.123Z,0.90
2023-01-17T05:38:23.926Z,0.90
2023-01-17T05:40:50.808Z,1.00
2023-01-17T05:43:17.524Z,1.00
2023-01-17T05:45:46.588Z,1.00
2023-01-17T05:48:13.281Z,1.00
2023-01-17T05:50:40.141Z,1.00
2023-01-17T05:53:09.235Z,1.00
2023-01-17T05:55:36.489Z,1.00
2023-01-17T05:58:03.764Z,1.00
2023-01-17T06:00:31.753Z,1.00
2023-01-17T06:03:00.476Z,1.00
2023-01-17T06:05:30.667Z,1.00
2023-01-17T06:07:57.749Z,1.00
2023-01-17T06:10:27.536Z,1.00
2023-01-17T06:13:25.418Z,0.90
2023-01-17T06:16:11.170Z,0.90
2023-01-17T06:18:37.954Z,0.90
2023-01-17T06:21:04.970Z,0.80
2023-01-17T06:23:31.662Z,0.90
2023-01-17T06:26:03.553Z,0.90
2023-01-17T06:28:30.714Z,0.90
2023-01-17T06:30:57.681Z,0.80
2023-01-17T06:33:24.904Z,0.70
2023-01-17T06:35:52.810Z,0.70
2023-01-17T06:38:19.707Z,0.70
2023-01-17T06:40:46.439Z,0.60
2023-01-17T06:43:16.101Z,0.40
2023-01-17T06:45:42.856Z,0.30
2023-01-17T06:48:09.528Z,0.20
2023-01-17T06:50:36.678Z,0.20
2023-01-17T06:53:06.164Z,0.20
2023-01-17T06:55:34.408Z,0.20
2023-01-17T06:58:02.783Z,0.10
2023-01-17T07:00:31.245Z,0.10
2023-01-17T07:02:58.060Z,0.20
2023-01-17T07:05:27.601Z,0.20
2023-01-17T07:07:54.716Z,0.20
2023-01-17T07:10:21.885Z,0.30
2023-01-17T07:12:51.625Z,0.40
2023-01-17T07:15:18.519Z,0.40
2023-01-17T07:17:47.658Z,0.40
2023-01-17T07:20:14.368Z,0.40
2023-01-17T07:22:45.087Z,0.20
2023-01-17T07:25:12.847Z,0.20
2023-01-17T07:27:39.611Z,0.10
2023-01-17T07:30:06.912Z,0.10
2023-01-17T07:32:33.555Z,0.10
2023-01-17T07:35:00.257Z,0.20
2023-01-17T07:37:27.178Z,0.20
2023-01-17T07:39:54.605Z,0.20
2023-01-17T07:42:23.922Z,0.20
2023-01-17T07:44:50.928Z,0.20
2023-01-17T07:47:17.657Z,0.20
2023-01-17T07:49:44.372Z,0.20
2023-01-17T07:52:11.431Z,0.20
2023-01-17T07:54:38.334Z,0.20
2023-01-17T07:57:05.016Z,0.30
2023-01-17T07:59:33.742Z,0.50
2023-01-17T08:02:00.759Z,0.60
2023-01-17T08:04:28.741Z,0.70
2023-01-17T08:06:55.512Z,0.80
2023-01-17T08:09:22.352Z,1.00
2023-01-17T08:11:49.220Z,1.20
2023-01-17T08:14:16.342Z,1.50
2023-01-17T08:16:43.331Z,1.60
2023-01-17T08:19:10.441Z,1.80
2023-01-17T08:21:37.336Z,1.90
2023-01-17T08:24:04.606Z,2.00
2023-01-17T08:26:31.361Z,2.10
2023-01-17T08:29:01.956Z,2.30
2023-01-17T08:31:31.012Z,2.50
2023-01-17T08:33:58.241Z,2.60
2023-01-17T08:36:31.232Z,2.80
2023-01-17T08:38:58.512Z,3.00
2023-01-17T08:41:30.301Z,3.00
2023-01-17T08:43:59.686Z,3.00
2023-01-17T08:46:30.387Z,3.10
2023-01-17T08:49:00.058Z,3.00
2023-01-17T08:51:27.749Z,3.10
2023-01-17T08:53:56.424Z,3.20
2023-01-17T08:56:27.294Z,3.20
2023-01-17T08:58:54.366Z,3.30
2023-01-17T09:01:21.165Z,3.60
2023-01-17T09:03:53.723Z,3.70
2023-01-17T09:06:20.899Z,3.90
2023-01-17T09:08:54.711Z,3.90
2023-01-17T09:11:21.445Z,4.00
2023-01-17T09:13:48.089Z,4.00
2023-01-17T09:16:15.857Z,4.10
2023-01-17T09:18:42.569Z,4.40
2023-01-17T09:21:18.851Z,4.50
2023-01-17T09:23:46.317Z,4.50
2023-01-17T09:26:26.820Z,4.50
2023-01-17T09:28:54.113Z,4.70
2023-01-17T09:31:22.692Z,4.90
2023-01-17T09:33:50.984Z,5.20
2023-01-17T09:36:18.496Z,5.50
2023-01-17T09:38:45.373Z,5.50
2023-01-17T09:41:34.340Z,5.70
2023-01-17T09:44:14.803Z,5.50
2023-01-17T09:46:44.786Z,5.40
2023-01-17T09:49:30.424Z,5.40
2023-01-17T09:51:57.632Z,5.30
2023-01-17T09:54:30.667Z,5.20
2023-01-17T09:57:24.119Z,5.30
2023-01-17T10:00:03.904Z,5.70
2023-01-17T10:03:13.483Z,5.80
2023-01-17T10:06:07.740Z,5.80
2023-01-17T10:09:03.768Z,5.80
2023-01-17T10:11:37.771Z,6.10
2023-01-17T10:14:41.552Z,6.40
2023-01-17T10:17:26.130Z,6.70
2023-01-17T10:20:21.582Z,6.90
2023-01-17T10:23:09.791Z,7.20
2023-01-17T10:25:49.840Z,7.30
2023-01-17T10:28:23.299Z,7.30
2023-01-17T10:31:08.039Z,7.50
2023-01-17T10:33:50.065Z,7.30
2023-01-17T10:36:37.635Z,7.20
2023-01-17T10:39:29.537Z,7.40
2023-01-17T10:42:04.091Z,7.60
2023-01-17T10:44:55.044Z,7.80
2023-01-17T10:47:23.885Z,7.70
2023-01-17T10:49:55.163Z,7.70
2023-01-17T10:52:40.859Z,8.30
2023-01-17T10:55:26.143Z,9.00
2023-01-17T10:57:54.001Z,8.80
2023-01-17T11:00:57.291Z,8.10
2023-01-17T11:03:24.314Z,8.10
2023-01-17T11:06:16.421Z,8.70
2023-01-17T11:08:51.150Z,9.00
2023-01-17T11:11:20.189Z,9.30
2023-01-17T11:13:49.639Z,8.40
2023-01-17T11:16:27.423Z,8.20
2023-01-17T11:19:06.346Z,7.80
2023-01-17T11:21:33.430Z,7.90
2023-01-17T11:24:10.681Z,8.30
2023-01-17T11:26:45.648Z,9.00
2023-01-17T11:29:27.594Z,9.50
2023-01-17T11:31:56.220Z,9.00
2023-01-17T11:34:31.984Z,8.20
2023-01-17T11:37:20.890Z,7.90
2023-01-17T11:39:48.186Z,7.30
2023-01-17T11:42:38.443Z,7.30
2023-01-17T11:45:29.697Z,7.40
2023-01-17T11:48:09.035Z,7.30
2023-01-17T11:50:40.019Z,7.00
2023-01-17T11:53:15.922Z,7.00
2023-01-17T11:56:05.727Z,6.90
2023-01-17T11:58:39.881Z,6.60
2023-01-17T12:01:18.600Z,6.60
2023-01-17T12:04:31.522Z,6.90
2023-01-17T12:07:16.451Z,7.00
2023-01-17T12:10:12.229Z,7.30
2023-01-17T12:13:16.512Z,7.10
2023-01-17T12:16:23.655Z,7.00
2023-01-17T12:19:18.409Z,7.30
2023-01-17T12:21:51.523Z,7.20
2023-01-17T12:24:54.377Z,6.90
2023-01-17T12:27:34.513Z,6.80
2023-01-17T12:30:16.821Z,6.90
2023-01-17T12:32:55.188Z,7.10
2023-01-17T12:35:31.906Z,7.00
2023-01-17T12:38:18.030Z,6.90
2023-01-17T12:41:00.864Z,6.80
2023-01-17T12:43:33.413Z,6.60
2023-01-17T12:46:05.476Z,6.50
2023-01-17T12:48:39.337Z,6.20
2023-01-17T12:51:23.320Z,6.20
2023-01-17T12:54:12.990Z,6.20
2023-01-17T12:56:45.030Z,6.00
2023-01-17T12:59:44.664Z,6.00
2023-01-17T13:02:33.497Z,6.00
2023-01-17T13:05:36.844Z,6.00
2023-01-17T13:08:19.755Z,5.70
2023-01-17T13:10:55.699Z,5.60
2023-01-17T13:13:25.685Z,5.60
2023-01-17T13:16:04.420Z,5.40
2023-01-17T13:18:33.746Z,5.50
2023-01-17T13:21:23.015Z,5.60
2023-01-17T13:23:52.571Z,5.70
2023-01-17T13:26:44.289Z,5.60
2023-01-17T13:29:52.311Z,5.80
2023-01-17T13:32:43.580Z,5.80
2023-01-17T13:35:10.256Z,5.70
2023-01-17T13:38:05.008Z,5.70
2023-01-17T13:40:42.362Z,5.60
2023-01-17T13:43:18.237Z,5.50
2023-01-17T13:45:53.291Z,5.30
2023-01-17T13:48:23.242Z,5.20
2023-01-17T13:51:26.752Z,4.90
2023-01-17T13:53:55.008Z,4.90
2023-01-17T13:56:37.412Z,4.70
2023-01-17T13:59:05.384Z,4.60
2023-01-17T14:01:32.139Z,4.50
2023-01-17T14:03:58.811Z,4.50
2023-01-17T14:07:01.223Z,4.60
2023-01-17T14:09:42.472Z,4.60
2023-01-17T14:12:09.188Z,4.60
2023-01-17T14:14:41.694Z,4.60
2023-01-17T14:17:22.915Z,4.60
2023-01-17T14:20:06.158Z,4.60
2023-01-17T14:22:39.520Z,4.60
2023-01-17T14:25:19.435Z,4.50
2023-01-17T14:27:48.231Z,4.50
2023-01-17T14:30:18.094Z,4.50
2023-01-17T14:33:05.767Z,4.40
2023-01-17T14:35:33.640Z,4.30
2023-01-17T14:38:05.567Z,4.20
2023-01-17T14:40:34.420Z,4.20
2023-01-17T14:43:24.917Z,4.10
2023-01-17T14:46:25.190Z,3.90
2023-01-17T14:48:59.924Z,3.80
2023-01-17T14:51:26.695Z,3.70
2023-01-17T14:53:58.853Z,3.70
2023-01-17T14:56:27.648Z,3.50
2023-01-17T14:59:11.990Z,3.40
2023-01-17T15:01:39.188Z,3.30
2023-01-17T15:04:06.295Z,3.20
2023-01-17T15:06:41.494Z,3.10
2023-01-17T15:09:29.178Z,3.00
2023-01-17T15:11:57.447Z,2.80
2023-01-17T15:14:34.913Z,2.70
2023-01-17T15:17:31.744Z,2.50
2023-01-17T15:20:03.266Z,2.40
2023-01-17T15:22:30.703Z,2.20
2023-01-17T15:24:58.867Z,2.10
2023-01-17T15:27:28.767Z,2.00
2023-01-17T15:30:02.263Z,1.80
2023-01-17T15:32:31.403Z,1.60
2023-01-17T15:34:59.366Z,1.50
2023-01-17T15:37:29.617Z,1.40
2023-01-17T15:40:12.224Z,1.30
2023-01-17T15:42:42.257Z,1.20
2023-01-17T15:45:16.769Z,1.10
2023-01-17T15:47:43.471Z,0.90
2023-01-17T15:50:27.831Z,0.90
2023-01-17T15:53:01.676Z,0.90
2023-01-17T15:55:33.229Z,0.80
2023-01-17T15:58:00.379Z,0.70
2023-01-17T16:00:37.132Z,0.60
2023-01-17T16:03:26.826Z,0.50
2023-01-17T16:05:54.506Z,0.40
2023-01-17T16:08:39.727Z,0.20
2023-01-17T16:11:08.092Z,0.10
2023-01-17T16:13:38.591Z,0.00
2023-01-17T16:16:14.696Z,0.00
2023-01-17T16:18:48.410Z,-0.10
2023-01-17T16:21:26.772Z,-0.10
2023-01-17T16:23:53.840Z,-0.20
2023-01-17T16:26:21.302Z,-0.20
2023-01-17T16:28:49.100Z,-0.30
2023-01-17T16:31:16.876Z,-0.30
2023-01-17T16:33:45.769Z,-0.20
2023-01-17T16:36:15.065Z,-0.20
2023-01-17T16:38:42.856Z,-0.20
2023-01-17T16:41:10.042Z,-0.10
2023-01-17T16:43:36.943Z,0.00
2023-01-17T16:46:07.811Z,0.00
2023-01-17T16:48:36.716Z,-0.10
2023-01-17T16:51:09.243Z,-0.10
2023-01-17T16:53:38.794Z,-0.20
2023-01-17T16:56:13.702Z,-0.10
2023-01-17T16:58:40.916Z,-0.10
2023-01-17T17:01:25.942Z,0.00
2023-01-17T17:03:55.755Z,0.00
2023-01-17T17:06:22.452Z,-0.10
2023-01-17T17:08:49.150Z,0.00
2023-01-17T17:11:21.535Z,-0.10
2023-01-17T17:13:49.899Z,-0.20
2023-01-17T17:16:19.860Z,-0.20
2023-01-17T17:18:54.108Z,-0.20
2023-01-17T17:21:20.982Z,-0.10
2023-01-17T17:23:50.859Z,-0.10
2023-01-17T17:26:18.523Z,0.10
2023-01-17T17:28:45.166Z,0.10
2023-01-17T17:31:12.043Z,0.00
2023-01-17T17:33:39.198Z,-0.10
2023-01-17T17:36:10.130Z,-0.20
2023-01-17T17:38:50.908Z,-0.10
2023-01-17T17:41:20.384Z,-0.10
2023-01-17T17:43:47.449Z,-0.10
2023-01-17T17:46:14.814Z,-0.20
2023-01-17T17:48:41.476Z,-0.10
2023-01-17T17:51:20.257Z,-0.10
2023-01-17T17:53:46.989Z,0.00
2023-01-17T17:56:18.542Z,0.10
2023-01-17T17:58:46.726Z,0.10
2023-01-17T18:01:13.580Z,0.00
2023-01-17T18:03:40.606Z,0.00
2023-01-17T18:06:12.464Z,-0.10
2023-01-17T18:08:40.230Z,0.10
2023-01-17T18:11:11.255Z,0.20
2023-01-17T18:13:39.016Z,0.20
2023-01-17T18:16:12.518Z,0.20
2023-01-17T18:18:41.558Z,0.00
2023-01-17T18:21:25.966Z,0.00
2023-01-17T18:23:56.663Z,-0.10
2023-01-17T18:26:32.000Z,-0.10
2023-01-17T18:29:00.304Z,-0.10
2023-01-17T18:31:28.505Z,-0.20
2023-01-17T18:33:57.084Z,-0.20
2023-01-17T18:36:25.277Z,-0.20
2023-01-17T18:38:52.291Z,-0.30
2023-01-17T18:41:27.083Z,-0.20
2023-01-17T18:43:56.114Z,-0.30
2023-01-17T18:46:26.321Z,-0.30
2023-01-17T18:48:55.576Z,-0.30
2023-01-17T18:51:22.816Z,-0.30
2023-01-17T18:53:49.861Z,-0.30
2023-01-17T18:56:20.091Z,-0.20
2023-01-17T18:58:48.344Z,-0.20
2023-01-17T19:01:46.387Z,-0.20
2023-01-17T19:04:15.543Z,-0.20
2023-01-17T19:06:44.949Z,-0.20
2023-01-17T19:09:13.653Z,-0.20
2023-01-17T19:11:40.841Z,-0.20
2023-01-17T19:14:07.830Z,-0.20
2023-01-17T19:16:39.158Z,-0.20
2023-01-17T19:19:09.789Z,-0.10
2023-01-17T19:21:36.775Z,0.00
2023-01-17T19:24:04.072Z,0.10
2023-01-17T19:26:30.826Z,0.10
2023-01-17T19:29:03.706Z,0.20
2023-01-17T19:31:32.528Z,0.30
2023-01-17T19:33:59.900Z,0.20
2023-01-17T19:36:33.678Z,0.10
2023-01-17T19:39:06.150Z,0.10
2023-01-17T19:41:40.450Z,0.10
2023-01-17T19:44:08.939Z,0.10
2023-01-17T19:46:36.333Z,0.10
2023-01-17T19:49:04.457Z,0.20
2023-01-17T19:51:31.197Z,0.20
2023-01-17T19:54:01.831Z,0.20
2023-01-17T19:56:29.985Z,0.20
2023-01-17T19:59:01.024Z,0.20
2023-01-17T20:01:31.279Z,0.20
2023-01-17T20:03:58.865Z,0.20
2023-01-17T20:06:33.272Z,0.30
2023-01-17T20:09:00.093Z,0.40
2023-01-17T20:11:28.217Z,0.40
2023-01-17T20:13:56.951Z,0.50
2023-01-17T20:16:25.240Z,0.60
2023-01-17T20:18:52.163Z,0.60
2023-01-17T20:21:25.182Z,0.70
2023-01-17T20:23:52.765Z,0.70
2023-01-17T20:26:22.111Z,0.70
2023-01-17T20:28:51.416Z,0.70
2023-01-17T20:31:21.416Z,0.70
2023-01-17T20:33:52.532Z,0.70
2023-01-17T20:36:20.833Z,0.70
2023-01-17T20:38:49.919Z,0.70
2023-01-17T20:41:25.353Z,0.70
2023-01-17T20:43:57.986Z,0.80
2023-01-17T20:46:26.989Z,0.70
2023-01-17T20:48:55.903Z,0.70
2023-01-17T20:51:25.241Z,0.70
2023-01-17T20:54:01.093Z,0.60
2023-01-17T20:56:34.618Z,0.60
2023-01-17T20:59:07.502Z,0.70
2023-01-17T21:01:35.344Z,0.70
2023-01-17T21:04:03.203Z,0.70
2023-01-17T21:06:30.154Z,0.60
2023-01-17T21:08:56.965Z,0.50
2023-01-17T21:11:25.552Z,0.50
2023-01-17T21:13:52.397Z,0.40
2023-01-17T21:16:22.362Z,0.40
2023-01-17T21:18:52.987Z,0.40
2023-01-17T21:21:25.288Z,0.40
2023-01-17T21:23:54.056Z,0.40
2023-01-17T21:26:22.537Z,0.40
2023-01-17T21:28:50.809Z,0.30
2023-01-17T21:31:28.266Z,0.30
2023-01-17T21:34:00.108Z,0.30
2023-01-17T21:36:28.850Z,0.30
2023-01-17T21:38:57.524Z,0.30
2023-01-17T21:41:29.502Z,0.30
2023-01-17T21:43:58.612Z,0.20
2023-01-17T21:46:26.675Z,0.20
2023-01-17T21:48:53.507Z,0.10
2023-01-17T21:51:21.686Z,0.20
2023-01-17T21:53:48.511Z,0.20
2023-01-17T21:56:35.802Z,0.10
2023-01-17T21:59:02.464Z,0.10
2023-01-17T22:01:32.684Z,0.10
2023-01-17T22:04:01.622Z,0.10
2023-01-17T22:06:31.532Z,0.10
2023-01-17T22:08:59.230Z,0.10
2023-01-17T22:11:27.580Z,0.00
2023-01-17T22:13:54.534Z,-0.20
2023-01-17T22:16:24.347Z,-0.20
2023-01-17T22:18:51.757Z,-0.30
2023-01-17T22:21:20.842Z,-0.30
2023-01-17T22:23:49.859Z,-0.20
2023-01-17T22:26:17.111Z,-0.20
2023-01-17T22:28:46.978Z,-0.20
2023-01-17T22:31:19.183Z,-0.20
2023-01-17T22:33:47.397Z,-0.10
2023-01-17T22:36:15.101Z,-0.10
2023-01-17T22:38:42.885Z,-0.10
2023-01-17T22:41:19.906Z,0.00
2023-01-17T22:43:52.126Z,-0.10
2023-01-17T22:46:21.908Z,0.00
2023-01-17T22:48:51.303Z,0.00
2023-01-17T22:51:21.417Z,0.00
2023-01-17T22:53:50.507Z,0.00
2023-01-17T22:56:22.836Z,0.00
2023-01-17T22:58:50.219Z,0.00
2023-01-17T23:01:26.037Z,0.10
2023-01-17T23:04:04.422Z,0.20
2023-01-17T23:06:37.092Z,0.20
2023-01-17T23:09:12.138Z,0.20
2023-01-17T23:11:43.908Z,0.30
2023-01-17T23:14:30.577Z,0.20
2023-01-17T23:17:22.286Z,0.30
2023-01-17T23:19:54.277Z,0.30
2023-01-17T23:22:29.912Z,0.30
2023-01-17T23:25:09.277Z,0.30
2023-01-17T23:27:59.710Z,0.20
2023-01-17T23:30:38.470Z,0.20
2023-01-17T23:33:07.867Z,0.30
2023-01-17T23:35:41.456Z,0.30
2023-01-17T23:38:33.805Z,0.30
2023-01-17T23:41:22.217Z,0.30
2023-01-17T23:43:53.332Z,0.30
2023-01-17T23:46:20.735Z,0.40
2023-01-17T23:48:48.161Z,0.40
2023-01-17T23:51:15.063Z,0.40
2023-01-17T23:53:42.017Z,0.30
2023-01-17T23:56:20.706Z,0.30
2023-01-17T23:58:47.450Z,0.30
